createdAt,value
2018-05-05T00:02:01.811Z,98010.66
2018-05-05T00:04:29.203Z,98009.47
2018-05-05T00:06:56.645Z,98008.27
2018-05-05T00:09:24.137Z,98002.74
2018-05-05T00:11:51.596Z,97999.33
2018-05-05T00:14:19.260Z,98002.75
2018-05-05T00:16:46.745Z,98003.23
2018-05-05T00:19:14.335Z,98006.41
2018-05-05T00:21:41.866Z,98008.98
2018-05-05T00:24:09.449Z,98006.66
2018-05-05T00:26:37.012Z,98005.30
2018-05-05T00:29:04.583Z,97997.41
2018-05-05T00:31:32.076Z,98001.55
2018-05-05T00:33:59.564Z,98001.55
2018-05-05T00:36:27.323Z,98002.50
2018-05-05T00:38:55.354Z,98005.61
2018-05-05T00:41:23.037Z,97997.31
2018-05-05T00:43:50.594Z,97996.77
2018-05-05T00:46:18.080Z,97996.09
2018-05-05T00:48:45.522Z,98001.86
2018-05-05T00:51:13.600Z,97997.05
2018-05-05T00:53:41.223Z,97999.47
2018-05-05T00:56:08.754Z,97991.55
2018-05-05T00:58:36.277Z,97990.44
2018-05-05T01:01:03.772Z,97991.73
2018-05-05T01:03:31.288Z,97988.27
2018-05-05T01:05:58.742Z,97989.74
2018-05-05T01:08:26.212Z,97991.05
2018-05-05T01:10:53.717Z,97994.88
2018-05-05T01:13:21.268Z,97996.31
2018-05-05T01:15:48.683Z,97998.52
2018-05-05T01:18:16.156Z,98009.77
2018-05-05T01:20:43.730Z,98007.88
2018-05-05T01:23:11.368Z,98000.53
2018-05-05T01:25:42.637Z,98005.80
2018-05-05T01:28:10.105Z,98008.77
2018-05-05T01:30:37.635Z,98002.62
2018-05-05T01:33:05.159Z,98001.11
2018-05-05T01:35:32.717Z,98008.22
2018-05-05T01:38:00.194Z,98003.19
2018-05-05T01:40:27.716Z,98006.92
2018-05-05T01:42:55.225Z,98012.67
2018-05-05T01:45:22.683Z,98009.25
2018-05-05T01:47:50.129Z,98009.42
2018-05-05T01:50:17.699Z,98009.98
2018-05-05T01:52:45.193Z,98008.45
2018-05-05T01:55:12.738Z,98014.12
2018-05-05T01:57:40.315Z,98008.19
2018-05-05T02:00:07.891Z,98008.47
2018-05-05T02:02:35.536Z,98001.03
2018-05-05T02:05:03.179Z,98007.12
2018-05-05T02:07:30.940Z,97999.94
2018-05-05T02:09:59.224Z,97998.21
2018-05-05T02:12:26.719Z,97995.15
2018-05-05T02:14:57.371Z,98000.25
2018-05-05T02:17:24.875Z,97994.68
2018-05-05T02:19:52.387Z,97998.66
2018-05-05T02:22:20.161Z,98002.07
2018-05-05T02:24:47.746Z,98017.38
2018-05-05T02:27:15.192Z,98014.12
